createdAt,value
2023-01-25T00:00:33.599Z,1.10
2023-01-25T00:03:01.531Z,1.10
2023-01-25T00:05:30.837Z,1.10
2023-01-25T00:07:58.781Z,1.10
2023-01-25T00:10:26.709Z,1.10
2023-01-25T00:12:54.615Z,1.10
2023-01-25T00:15:22.521Z,1.00
2023-01-25T00:17:50.451Z,1.00
2023-01-25T00:20:18.530Z,1.00
2023-01-25T00:22:47.846Z,1.10
2023-01-25T00:25:15.839Z,1.10
2023-01-25T00:27:43.803Z,1.10
2023-01-25T00:30:12.632Z,1.10
2023-01-25T00:32:50.355Z,1.10
2023-01-25T00:35:18.299Z,1.10
2023-01-25T00:37:50.597Z,1.10
2023-01-25T00:40:18.830Z,1.10
2023-01-25T00:42:46.827Z,1.00
2023-01-25T00:45:14.720Z,1.00
2023-01-25T00:47:42.609Z,1.00
2023-01-25T00:50:11.647Z,1.00
2023-01-25T00:52:40.585Z,1.00
2023-01-25T00:55:11.053Z,1.00
2023-01-25T00:57:38.972Z,1.00
2023-01-25T01:00:08.137Z,0.90
2023-01-25T01:02:36.015Z,0.90
2023-01-25T01:05:04.054Z,0.90
2023-01-25T01:07:32.066Z,0.90
2023-01-25T01:10:00.337Z,0.90
2023-01-25T01:12:29.604Z,0.90
2023-01-25T01:14:57.706Z,1.00
2023-01-25T01:17:25.711Z,1.00
2023-01-25T01:19:53.611Z,0.90
2023-01-25T01:22:21.539Z,0.90
2023-01-25T01:24:50.018Z,0.90
2023-01-25T01:27:17.941Z,0.90
2023-01-25T01:29:47.310Z,0.90
2023-01-25T01:32:15.392Z,0.90
2023-01-25T01:34:44.476Z,0.90
2023-01-25T01:37:12.851Z,0.90
2023-01-25T01:39:40.787Z,0.90
2023-01-25T01:42:08.688Z,0.80
2023-01-25T01:44:47.799Z,0.80
2023-01-25T01:47:20.032Z,0.80
2023-01-25T01:49:53.266Z,0.80
2023-01-25T01:52:25.836Z,0.70
2023-01-25T01:54:58.227Z,0.60
2023-01-25T01:57:31.233Z,0.60
2023-01-25T02:00:04.159Z,0.60
2023-01-25T02:02:32.299Z,0.60
2023-01-25T02:05:05.522Z,0.50
2023-01-25T02:07:35.669Z,0.50
2023-01-25T02:10:04.655Z,0.50
2023-01-25T02:12:33.501Z,0.50
2023-01-25T02:15:02.762Z,0.50
2023-01-25T02:17:33.131Z,0.50
2023-01-25T02:20:07.541Z,0.50
2023-01-25T02:22:41.828Z,0.50
2023-01-25T02:25:12.829Z,0.50
2023-01-25T02:27:43.884Z,0.60
2023-01-25T02:30:12.327Z,0.60
2023-01-25T02:32:40.213Z,0.60
2023-01-25T02:35:09.786Z,0.60
2023-01-25T02:37:38.013Z,0.60
2023-01-25T02:40:06.898Z,0.50
2023-01-25T02:42:36.260Z,0.50
2023-01-25T02:45:07.631Z,0.50
2023-01-25T02:47:35.652Z,0.50
2023-01-25T02:50:03.733Z,0.50
2023-01-25T02:52:31.596Z,0.60
2023-01-25T02:54:59.593Z,0.60
2023-01-25T02:57:27.473Z,0.60
2023-01-25T02:59:56.775Z,0.60
2023-01-25T03:02:24.774Z,0.60
2023-01-25T03:04:52.749Z,0.60
2023-01-25T03:07:20.630Z,0.50
2023-01-25T03:09:48.525Z,0.50
2023-01-25T03:12:16.506Z,0.50
2023-01-25T03:14:44.612Z,0.50
2023-01-25T03:17:13.917Z,0.50
2023-01-25T03:19:41.794Z,0.50
2023-01-25T03:22:11.094Z,0.40
2023-01-25T03:24:39.020Z,0.40
2023-01-25T03:27:14.222Z,0.40
2023-01-25T03:29:42.538Z,0.40
2023-01-25T03:32:10.698Z,0.40
2023-01-25T03:34:40.039Z,0.40
2023-01-25T03:37:08.050Z,0.40
2023-01-25T03:39:35.952Z,0.40
2023-01-25T03:42:03.873Z,0.40
2023-01-25T03:44:31.843Z,0.40
2023-01-25T03:46:59.852Z,0.40
2023-01-25T03:49:27.973Z,0.40
2023-01-25T03:51:58.054Z,0.40
2023-01-25T03:54:26.023Z,0.40
2023-01-25T03:56:53.964Z,0.30
2023-01-25T03:59:21.857Z,0.20
2023-01-25T04:01:49.852Z,0.10
2023-01-25T04:04:17.773Z,0.10
2023-01-25T04:06:45.704Z,0.10
2023-01-25T04:09:15.190Z,0.10
2023-01-25T04:11:43.096Z,0.10
2023-01-25T04:14:12.067Z,0.00
2023-01-25T04:16:40.030Z,0.10
2023-01-25T04:19:08.071Z,0.10
2023-01-25T04:21:36.103Z,0.20
2023-01-25T04:24:04.250Z,0.20
2023-01-25T04:26:33.495Z,0.10
2023-01-25T04:29:01.471Z,0.10
2023-01-25T04:31:29.566Z,0.10
2023-01-25T04:33:57.648Z,0.00
2023-01-25T04:36:25.547Z,0.10
2023-01-25T04:38:53.465Z,0.10
2023-01-25T04:41:21.343Z,0.20
2023-01-25T04:43:50.570Z,0.20
2023-01-25T04:46:18.521Z,0.20
2023-01-25T04:48:46.460Z,0.20
2023-01-25T04:51:15.080Z,0.20
2023-01-25T04:53:43.003Z,0.20
2023-01-25T04:56:10.886Z,0.20
2023-01-25T04:58:38.748Z,0.20
2023-01-25T05:01:08.321Z,0.20
2023-01-25T05:03:36.215Z,0.30
2023-01-25T05:06:04.076Z,0.30
2023-01-25T05:08:31.988Z,0.20
2023-01-25T05:10:59.874Z,0.10
2023-01-25T05:13:27.779Z,0.10
2023-01-25T05:15:57.628Z,0.10
2023-01-25T05:18:33.116Z,0.10
2023-01-25T05:21:27.192Z,0.10
2023-01-25T05:23:55.068Z,0.20
2023-01-25T05:26:40.674Z,0.20
2023-01-25T05:29:09.694Z,0.20
2023-01-25T05:31:37.632Z,0.10
2023-01-25T05:34:06.897Z,0.10
2023-01-25T05:36:34.759Z,0.10
2023-01-25T05:39:02.930Z,0.00
2023-01-25T05:41:31.847Z,0.00
2023-01-25T05:43:59.713Z,0.00
2023-01-25T05:46:29.271Z,0.00
2023-01-25T05:48:57.437Z,0.00
2023-01-25T05:51:26.661Z,0.10
2023-01-25T05:53:55.755Z,0.10
2023-01-25T05:56:23.921Z,0.20
2023-01-25T05:58:54.666Z,0.20
2023-01-25T06:01:23.014Z,0.20
2023-01-25T06:03:51.163Z,0.20
2023-01-25T06:06:19.678Z,0.20
2023-01-25T06:08:49.609Z,0.20
2023-01-25T06:11:20.002Z,0.20
2023-01-25T06:13:48.736Z,0.20
2023-01-25T06:16:17.200Z,0.20
2023-01-25T06:18:45.845Z,0.20
2023-01-25T06:21:13.879Z,0.20
2023-01-25T06:23:44.125Z,0.30
2023-01-25T06:26:15.934Z,0.30
2023-01-25T06:28:43.902Z,0.20
2023-01-25T06:31:13.811Z,0.10
2023-01-25T06:33:42.918Z,0.00
2023-01-25T06:36:13.821Z,0.00
2023-01-25T06:38:42.116Z,0.10
2023-01-25T06:41:12.580Z,0.00
2023-01-25T06:43:41.808Z,0.10
2023-01-25T06:46:12.021Z,0.10
2023-01-25T06:48:40.306Z,0.10
2023-01-25T06:51:10.858Z,0.10
2023-01-25T06:53:40.594Z,0.10
2023-01-25T06:56:12.019Z,0.10
2023-01-25T06:58:41.949Z,0.10
2023-01-25T07:01:14.369Z,0.10
2023-01-25T07:03:42.794Z,0.10
2023-01-25T07:06:12.124Z,0.10
2023-01-25T07:08:40.189Z,0.10
2023-01-25T07:11:13.026Z,0.10
2023-01-25T07:13:43.689Z,0.10
2023-01-25T07:16:15.207Z,0.10
2023-01-25T07:18:43.280Z,0.10
2023-01-25T07:21:14.056Z,0.10
2023-01-25T07:23:42.642Z,0.20
2023-01-25T07:26:16.485Z,0.20
2023-01-25T07:28:45.874Z,0.10
2023-01-25T07:31:14.548Z,0.10
2023-01-25T07:33:42.874Z,0.10
2023-01-25T07:36:12.119Z,0.10
2023-01-25T07:38:40.135Z,0.10
2023-01-25T07:41:08.099Z,0.10
2023-01-25T07:43:35.986Z,0.20
2023-01-25T07:46:07.485Z,0.20
2023-01-25T07:48:35.441Z,0.20
2023-01-25T07:51:22.565Z,0.20
2023-01-25T07:53:52.275Z,0.20
2023-01-25T07:56:22.975Z,0.20
2023-01-25T07:58:50.966Z,0.20
2023-01-25T08:01:21.860Z,0.20
2023-01-25T08:03:50.822Z,0.30
2023-01-25T08:06:27.608Z,0.20
2023-01-25T08:08:56.196Z,0.20
2023-01-25T08:11:26.342Z,0.20
2023-01-25T08:13:54.564Z,0.20
2023-01-25T08:16:26.088Z,0.20
2023-01-25T08:18:55.862Z,0.20
2023-01-25T08:21:25.535Z,0.20
2023-01-25T08:23:53.576Z,0.20
2023-01-25T08:26:21.651Z,0.20
2023-01-25T08:28:49.537Z,0.20
2023-01-25T08:31:20.196Z,0.20
2023-01-25T08:33:50.156Z,0.20
2023-01-25T08:36:19.457Z,0.20
2023-01-25T08:38:47.876Z,0.10
2023-01-25T08:41:17.555Z,0.20
2023-01-25T08:43:46.200Z,0.20
2023-01-25T08:46:15.841Z,0.20
2023-01-25T08:48:43.733Z,0.20
2023-01-25T08:51:14.535Z,0.20
2023-01-25T08:53:42.932Z,0.30
2023-01-25T08:56:13.485Z,0.30
2023-01-25T08:58:43.072Z,0.30
2023-01-25T09:01:12.915Z,0.30
2023-01-25T09:03:42.337Z,0.30
2023-01-25T09:06:12.395Z,0.30
2023-01-25T09:08:40.561Z,0.30
2023-01-25T09:11:10.268Z,0.30
2023-01-25T09:13:38.361Z,0.30
2023-01-25T09:16:08.042Z,0.30
2023-01-25T09:18:37.764Z,0.20
2023-01-25T09:21:07.502Z,0.20
2023-01-25T09:23:50.308Z,0.20
2023-01-25T09:26:19.831Z,0.20
2023-01-25T09:28:49.875Z,0.30
2023-01-25T09:31:22.001Z,0.20
2023-01-25T09:33:52.778Z,0.20
2023-01-25T09:36:21.142Z,0.20
2023-01-25T09:38:50.480Z,0.30
2023-01-25T09:41:44.629Z,0.20
2023-01-25T09:44:31.509Z,0.20
2023-01-25T09:47:03.086Z,0.10
2023-01-25T09:49:46.551Z,0.10
2023-01-25T09:52:36.983Z,0.10
2023-01-25T09:55:14.548Z,0.20
2023-01-25T09:57:45.452Z,0.30
2023-01-25T10:00:18.940Z,0.30
2023-01-25T10:02:53.972Z,0.30
2023-01-25T10:05:24.663Z,0.30
2023-01-25T10:07:58.541Z,0.20
2023-01-25T10:10:34.277Z,0.30
2023-01-25T10:13:03.915Z,0.20
2023-01-25T10:15:35.890Z,0.30
2023-01-25T10:18:11.067Z,0.30
2023-01-25T10:20:45.369Z,0.20
2023-01-25T10:23:37.829Z,0.20
2023-01-25T10:26:11.960Z,0.20
2023-01-25T10:28:43.410Z,0.30
2023-01-25T10:31:18.417Z,0.20
2023-01-25T10:33:48.076Z,0.20
2023-01-25T10:36:17.876Z,0.20
2023-01-25T10:38:48.983Z,0.10
2023-01-25T10:41:24.929Z,0.10
2023-01-25T10:44:12.848Z,0.10
2023-01-25T10:46:42.343Z,0.10
2023-01-25T10:49:25.732Z,0.00
2023-01-25T10:51:53.746Z,0.10
2023-01-25T10:54:24.041Z,0.10
2023-01-25T10:56:53.939Z,0.10
2023-01-25T10:59:25.412Z,0.00
2023-01-25T11:01:53.678Z,0.10
2023-01-25T11:04:33.646Z,0.10
2023-01-25T11:07:02.889Z,0.10
2023-01-25T11:09:34.207Z,0.00
2023-01-25T11:12:05.752Z,0.00
2023-01-25T11:14:34.391Z,0.00
2023-01-25T11:17:04.414Z,0.10
2023-01-25T11:19:37.304Z,0.00
2023-01-25T11:22:07.403Z,0.00
2023-01-25T11:24:37.465Z,-0.10
2023-01-25T11:27:24.658Z,0.00
2023-01-25T11:30:08.905Z,0.10
2023-01-25T11:32:40.384Z,0.00
2023-01-25T11:35:14.337Z,0.10
2023-01-25T11:37:59.253Z,0.10
2023-01-25T11:40:37.826Z,0.00
2023-01-25T11:43:20.089Z,0.00
2023-01-25T11:46:03.874Z,-0.10
2023-01-25T11:48:51.976Z,-0.10
2023-01-25T11:51:26.183Z,-0.10
2023-01-25T11:54:22.702Z,-0.10
2023-01-25T11:56:58.802Z,0.00
2023-01-25T11:59:54.881Z,0.00
2023-01-25T12:03:06.226Z,0.00
2023-01-25T12:05:44.657Z,-0.10
2023-01-25T12:08:32.976Z,-0.10
2023-01-25T12:11:07.920Z,0.00
2023-01-25T12:13:43.275Z,0.00
2023-01-25T12:16:32.152Z,0.00
2023-01-25T12:19:24.696Z,0.10
2023-01-25T12:22:12.496Z,0.10
2023-01-25T12:24:50.243Z,0.10
2023-01-25T12:27:30.472Z,0.10
2023-01-25T12:30:04.094Z,0.10
2023-01-25T12:32:39.243Z,0.20
2023-01-25T12:35:26.461Z,0.20
2023-01-25T12:37:59.799Z,0.20
2023-01-25T12:40:44.486Z,0.20
2023-01-25T12:43:19.164Z,0.20
2023-01-25T12:45:50.093Z,0.30
2023-01-25T12:48:23.369Z,0.40
2023-01-25T12:50:55.993Z,0.40
2023-01-25T12:53:27.742Z,0.50
2023-01-25T12:55:56.400Z,0.50
2023-01-25T12:58:37.766Z,0.50
2023-01-25T13:01:16.520Z,0.50
2023-01-25T13:04:04.518Z,0.60
2023-01-25T13:06:40.296Z,0.60
2023-01-25T13:09:14.571Z,0.60
2023-01-25T13:11:44.622Z,0.60
2023-01-25T13:14:30.085Z,0.60
2023-01-25T13:17:22.934Z,0.60
2023-01-25T13:19:53.421Z,0.50
2023-01-25T13:23:01.426Z,0.50
2023-01-25T13:25:29.324Z,0.40
2023-01-25T13:28:41.713Z,0.50
2023-01-25T13:31:09.806Z,0.50
2023-01-25T13:33:37.845Z,0.60
2023-01-25T13:36:39.986Z,0.50
2023-01-25T13:39:42.723Z,0.50
2023-01-25T13:42:22.464Z,0.50
2023-01-25T13:44:52.192Z,0.50
2023-01-25T13:47:23.174Z,0.50
2023-01-25T13:49:56.766Z,0.50
2023-01-25T13:52:27.464Z,0.50
2023-01-25T13:54:57.449Z,0.50
2023-01-25T13:57:27.189Z,0.50
2023-01-25T14:00:10.189Z,0.50
2023-01-25T14:02:42.241Z,0.50
2023-01-25T14:05:19.858Z,0.50
2023-01-25T14:07:51.998Z,0.40
2023-01-25T14:10:24.318Z,0.40
2023-01-25T14:12:53.924Z,0.40
2023-01-25T14:15:25.293Z,0.40
2023-01-25T14:18:10.683Z,0.40
2023-01-25T14:20:38.580Z,0.40
2023-01-25T14:23:22.418Z,0.40
2023-01-25T14:25:50.758Z,0.50
2023-01-25T14:28:19.111Z,0.50
2023-01-25T14:30:52.660Z,0.50
2023-01-25T14:33:23.545Z,0.60
2023-01-25T14:36:00.050Z,0.50
2023-01-25T14:38:35.843Z,0.50
2023-01-25T14:41:12.082Z,0.50
2023-01-25T14:43:45.232Z,0.50
2023-01-25T14:46:20.597Z,0.50
2023-01-25T14:48:48.653Z,0.40
2023-01-25T14:51:24.325Z,0.40
2023-01-25T14:53:58.935Z,0.40
2023-01-25T14:56:35.962Z,0.40
2023-01-25T14:59:06.237Z,0.40
2023-01-25T15:01:39.509Z,0.40
2023-01-25T15:04:13.247Z,0.40
2023-01-25T15:06:48.924Z,0.40
2023-01-25T15:09:38.665Z,0.30
2023-01-25T15:12:27.928Z,0.30
2023-01-25T15:14:58.074Z,0.30
2023-01-25T15:17:44.264Z,0.30
2023-01-25T15:20:36.828Z,0.30
2023-01-25T15:23:21.992Z,0.30
2023-01-25T15:25:55.430Z,0.30
2023-01-25T15:28:24.380Z,0.30
2023-01-25T15:30:52.725Z,0.30
2023-01-25T15:33:23.360Z,0.30
2023-01-25T15:35:52.382Z,0.30
2023-01-25T15:38:21.795Z,0.30
2023-01-25T15:40:51.873Z,0.30
2023-01-25T15:43:21.259Z,0.30
2023-01-25T15:45:51.306Z,0.30
2023-01-25T15:48:24.142Z,0.30
2023-01-25T15:50:54.188Z,0.30
2023-01-25T15:53:22.143Z,0.30
2023-01-25T15:55:54.990Z,0.30
2023-01-25T15:58:25.311Z,0.30
2023-01-25T16:00:53.223Z,0.30
2023-01-25T16:03:21.281Z,0.30
2023-01-25T16:05:51.800Z,0.30
2023-01-25T16:08:20.952Z,0.30
2023-01-25T16:10:49.193Z,0.20
2023-01-25T16:13:18.370Z,0.20
2023-01-25T16:15:52.161Z,0.20
2023-01-25T16:18:20.391Z,0.10
2023-01-25T16:20:48.232Z,0.10
2023-01-25T16:23:16.076Z,0.10
2023-01-25T16:25:48.530Z,0.10
2023-01-25T16:28:18.138Z,0.10
2023-01-25T16:30:46.245Z,0.10
2023-01-25T16:33:14.147Z,0.10
2023-01-25T16:35:41.971Z,0.10
2023-01-25T16:38:12.609Z,0.10
2023-01-25T16:40:40.485Z,0.10
2023-01-25T16:43:08.417Z,0.10
2023-01-25T16:45:37.881Z,0.10
2023-01-25T16:48:06.355Z,0.20
2023-01-25T16:50:34.221Z,0.20
2023-01-25T16:53:02.098Z,0.20
2023-01-25T16:55:29.966Z,0.10
2023-01-25T16:57:57.839Z,0.10
2023-01-25T17:00:25.836Z,0.00
2023-01-25T17:02:59.617Z,0.00
2023-01-25T17:05:33.487Z,0.00
2023-01-25T17:08:01.404Z,-0.10
2023-01-25T17:10:29.755Z,-0.20
2023-01-25T17:12:57.606Z,-0.20
2023-01-25T17:15:25.680Z,-0.20
2023-01-25T17:17:54.927Z,-0.20
2023-01-25T17:20:22.795Z,-0.20
2023-01-25T17:22:51.256Z,-0.20
2023-01-25T17:25:19.383Z,-0.20
2023-01-25T17:27:47.310Z,-0.20
2023-01-25T17:30:15.694Z,-0.20
2023-01-25T17:32:43.655Z,-0.20
2023-01-25T17:35:12.851Z,-0.20
2023-01-25T17:37:41.271Z,-0.20
2023-01-25T17:40:11.421Z,-0.20
2023-01-25T17:42:39.528Z,-0.20
2023-01-25T17:45:09.140Z,-0.20
2023-01-25T17:47:37.199Z,-0.10
2023-01-25T17:50:05.561Z,-0.10
2023-01-25T17:52:34.780Z,-0.10
2023-01-25T17:55:03.763Z,-0.10
2023-01-25T17:57:31.703Z,-0.10
2023-01-25T17:59:59.548Z,-0.10
2023-01-25T18:02:27.406Z,0.00
2023-01-25T18:04:55.376Z,0.00
2023-01-25T18:07:23.183Z,0.00
2023-01-25T18:09:52.496Z,-0.10
2023-01-25T18:12:20.704Z,-0.10
2023-01-25T18:14:48.853Z,-0.10
2023-01-25T18:17:16.691Z,-0.10
2023-01-25T18:19:45.897Z,-0.10
2023-01-25T18:22:14.714Z,-0.10
2023-01-25T18:24:44.735Z,-0.10
2023-01-25T18:27:20.250Z,-0.10
2023-01-25T18:29:55.069Z,-0.10
2023-01-25T18:32:22.911Z,-0.10
2023-01-25T18:34:50.997Z,-0.20
2023-01-25T18:37:20.388Z,-0.20
2023-01-25T18:39:49.314Z,-0.20
2023-01-25T18:42:19.255Z,-0.20
2023-01-25T18:44:48.444Z,-0.20
2023-01-25T18:47:18.582Z,-0.20
2023-01-25T18:49:47.118Z,-0.20
2023-01-25T18:52:16.600Z,-0.20
2023-01-25T18:54:44.671Z,-0.20
2023-01-25T18:57:13.201Z,-0.10
2023-01-25T18:59:43.249Z,-0.10
2023-01-25T19:02:12.508Z,-0.10
2023-01-25T19:04:40.350Z,-0.20
2023-01-25T19:07:08.472Z,-0.20
2023-01-25T19:09:36.334Z,-0.20
2023-01-25T19:12:04.294Z,-0.20
2023-01-25T19:14:32.106Z,-0.20
2023-01-25T19:17:01.296Z,-0.20
2023-01-25T19:19:32.038Z,-0.20
2023-01-25T19:21:59.959Z,-0.20
2023-01-25T19:24:27.950Z,-0.20
2023-01-25T19:26:55.871Z,-0.20
2023-01-25T19:29:23.731Z,-0.20
2023-01-25T19:31:51.696Z,-0.20
2023-01-25T19:34:20.971Z,-0.10
2023-01-25T19:36:50.089Z,-0.10
2023-01-25T19:39:19.059Z,-0.20
2023-01-25T19:41:47.045Z,-0.20
2023-01-25T19:44:15.682Z,-0.10
2023-01-25T19:46:44.222Z,-0.20
2023-01-25T19:49:13.244Z,-0.20
2023-01-25T19:51:45.567Z,-0.20
2023-01-25T19:54:16.523Z,-0.20
2023-01-25T19:56:46.243Z,-0.20
2023-01-25T19:59:15.635Z,-0.10
2023-01-25T20:01:45.230Z,-0.10
2023-01-25T20:04:14.683Z,-0.10
2023-01-25T20:06:44.428Z,-0.10
2023-01-25T20:09:14.085Z,-0.10
2023-01-25T20:11:42.528Z,-0.10
2023-01-25T20:14:13.286Z,-0.10
2023-01-25T20:16:41.482Z,-0.20
2023-01-25T20:19:11.597Z,-0.20
2023-01-25T20:21:39.845Z,-0.20
2023-01-25T20:24:10.444Z,-0.20
2023-01-25T20:26:40.238Z,-0.30
2023-01-25T20:29:08.527Z,-0.30
2023-01-25T20:31:37.920Z,-0.40
2023-01-25T20:34:08.175Z,-0.40
2023-01-25T20:36:36.536Z,-0.30
2023-01-25T20:39:04.910Z,-0.30
2023-01-25T20:41:34.160Z,-0.30
2023-01-25T20:44:08.399Z,-0.30
2023-01-25T20:46:38.767Z,-0.30
2023-01-25T20:49:08.372Z,-0.30
2023-01-25T20:51:36.486Z,-0.30
2023-01-25T20:54:04.496Z,-0.30
2023-01-25T20:56:33.676Z,-0.30
2023-01-25T20:59:01.557Z,-0.20
2023-01-25T21:01:33.873Z,-0.20
2023-01-25T21:04:01.722Z,-0.20
2023-01-25T21:06:29.626Z,-0.20
2023-01-25T21:08:59.289Z,-0.20
2023-01-25T21:11:27.228Z,-0.20
2023-01-25T21:13:56.949Z,-0.20
2023-01-25T21:16:24.849Z,-0.20
2023-01-25T21:18:54.986Z,-0.20
2023-01-25T21:21:25.753Z,-0.30
2023-01-25T21:23:56.061Z,-0.30
2023-01-25T21:26:26.650Z,-0.30
2023-01-25T21:28:56.749Z,-0.30
2023-01-25T21:31:27.133Z,-0.20
2023-01-25T21:33:55.690Z,-0.20
2023-01-25T21:36:23.832Z,-0.20
2023-01-25T21:38:53.367Z,-0.20
2023-01-25T21:41:24.452Z,-0.20
2023-01-25T21:44:10.777Z,-0.20
2023-01-25T21:46:40.146Z,-0.20
2023-01-25T21:49:27.519Z,-0.20
2023-01-25T21:51:56.883Z,-0.20
2023-01-25T21:54:27.485Z,-0.20
2023-01-25T21:56:56.348Z,-0.20
2023-01-25T21:59:25.030Z,-0.20
2023-01-25T22:01:56.162Z,-0.20
2023-01-25T22:04:25.506Z,-0.20
2023-01-25T22:06:54.408Z,-0.30
2023-01-25T22:09:22.773Z,-0.20
2023-01-25T22:11:50.885Z,-0.20
2023-01-25T22:14:19.698Z,-0.20
2023-01-25T22:16:47.825Z,-0.20
2023-01-25T22:19:17.811Z,-0.30
2023-01-25T22:21:46.829Z,-0.30
2023-01-25T22:24:15.266Z,-0.30
2023-01-25T22:26:51.469Z,-0.30
2023-01-25T22:29:19.348Z,-0.30
2023-01-25T22:31:47.223Z,-0.30
2023-01-25T22:34:16.480Z,-0.30
2023-01-25T22:36:44.519Z,-0.40
2023-01-25T22:39:14.834Z,-0.40
2023-01-25T22:41:43.257Z,-0.40
2023-01-25T22:44:11.254Z,-0.40
2023-01-25T22:46:39.076Z,-0.40
2023-01-25T22:49:07.653Z,-0.40
2023-01-25T22:51:36.821Z,-0.40
2023-01-25T22:54:05.173Z,-0.40
2023-01-25T22:56:34.555Z,-0.40
2023-01-25T22:59:02.887Z,-0.40
2023-01-25T23:01:32.556Z,-0.40
2023-01-25T23:04:01.772Z,-0.40
2023-01-25T23:06:33.110Z,-0.40
2023-01-25T23:09:05.089Z,-0.40
2023-01-25T23:11:35.599Z,-0.40
2023-01-25T23:14:22.044Z,-0.40
2023-01-25T23:16:49.906Z,-0.50
2023-01-25T23:19:16.881Z,-0.50
2023-01-25T23:21:54.018Z,-0.50
2023-01-25T23:24:26.420Z,-0.50
2023-01-25T23:26:54.291Z,-0.50
2023-01-25T23:29:22.115Z,-0.50
2023-01-25T23:31:49.976Z,-0.50
2023-01-25T23:34:17.838Z,-0.50
2023-01-25T23:36:45.708Z,-0.50
2023-01-25T23:39:14.203Z,-0.50
2023-01-25T23:41:43.370Z,-0.40
2023-01-25T23:44:11.213Z,-0.40
2023-01-25T23:46:39.224Z,-0.40
2023-01-25T23:49:07.189Z,-0.40
2023-01-25T23:51:35.042Z,-0.40
2023-01-25T23:54:03.022Z,-0.40
2023-01-25T23:56:30.839Z,-0.40
2023-01-25T23:59:00.102Z,-0.40
